Terminal Aerodrome Forecast
Issued by NWS

Home | Current Version | Previous Version | Text Only | Print | Product List | Glossary On
Versions: 1 2 3 4 5 6 7 8 9 10 11 12 13 14 15 16 17 18 19 20 21 22 23 24 25 26 27 28 29 30 31 32 33 34 35 36 37
000
FTUS44 KHGX 170910 AAA
TAFIAH
TAF AMD
KIAH 170910Z 1709/1812 16005KT P6SM VCSH BKN012 OVC020
     FM171400 03005KT 6SM -SHRA BR SCT008 BKN012
     FM172200 VRB05KT 6SM -RA SCT008 BKN015
     FM180300 08005KT 3SM BR VCSH BKN009
     FM180800 08006KT 2SM -RA BR VCTS OVC006CB
      TEMPO 1808/1812 TSRA=

USA.gov is the U.S. government's official web portal to all federal, state and local government web resources and services.